createdAt,value
2023-03-12T00:03:19.497Z,4.80
2023-03-12T00:05:46.629Z,5.93
2023-03-12T00:08:14.315Z,5.15
2023-03-12T00:10:43.261Z,5.75
2023-03-12T00:13:13.241Z,4.88
2023-03-12T00:15:40.365Z,5.78
2023-03-12T00:18:07.662Z,5.65
2023-03-12T00:20:34.981Z,5.85
2023-03-12T00:23:08.041Z,5.65
2023-03-12T00:25:36.196Z,5.97
2023-03-12T00:28:03.308Z,4.97
2023-03-12T00:30:31.296Z,5.70
2023-03-12T00:32:58.325Z,5.65
2023-03-12T00:35:26.995Z,5.72
2023-03-12T00:37:54.267Z,6.18
2023-03-12T00:40:21.525Z,4.95
2023-03-12T00:42:48.584Z,5.68
2023-03-12T00:45:15.830Z,6.43
2023-03-12T00:47:42.804Z,5.88
2023-03-12T00:50:10.223Z,5.63
2023-03-12T00:52:37.397Z,6.35
2023-03-12T00:55:05.832Z,5.45
2023-03-12T00:57:32.901Z,5.88
2023-03-12T01:00:00.210Z,6.10
2023-03-12T01:02:27.291Z,5.28
2023-03-12T01:04:54.421Z,4.95
2023-03-12T01:07:21.467Z,5.25
2023-03-12T01:09:51.255Z,5.20
2023-03-12T01:12:18.252Z,4.78
2023-03-12T01:14:45.128Z,4.47
2023-03-12T01:17:12.455Z,4.78
2023-03-12T01:19:39.692Z,4.40
2023-03-12T01:22:07.010Z,5.22
2023-03-12T01:24:33.986Z,4.10
2023-03-12T01:27:01.006Z,4.05
2023-03-12T01:29:28.594Z,4.75
2023-03-12T01:31:55.670Z,4.50
2023-03-12T01:34:22.965Z,3.92
2023-03-12T01:36:50.345Z,4.28
2023-03-12T01:39:17.718Z,3.53
2023-03-12T01:41:45.138Z,4.07
2023-03-12T01:44:15.080Z,3.83
2023-03-12T01:46:43.987Z,3.78
2023-03-12T01:49:35.648Z,4.43
2023-03-12T01:52:07.778Z,3.80
2023-03-12T01:54:50.024Z,3.70
2023-03-12T01:57:21.453Z,4.40
2023-03-12T02:00:00.149Z,4.50
2023-03-12T02:02:31.752Z,4.78
2023-03-12T02:05:23.721Z,4.05
2023-03-12T02:07:54.256Z,4.07
2023-03-12T02:10:23.876Z,3.65
2023-03-12T02:12:52.148Z,3.90
2023-03-12T02:15:19.697Z,3.72
2023-03-12T02:17:47.074Z,3.70
2023-03-12T02:20:35.442Z,4.03
2023-03-12T02:23:19.275Z,3.97
2023-03-12T02:25:50.411Z,3.45
2023-03-12T02:28:22.524Z,4.13
2023-03-12T02:30:56.567Z,3.83
2023-03-12T02:33:23.855Z,3.45
2023-03-12T02:35:52.975Z,3.75
2023-03-12T02:38:39.726Z,2.65
2023-03-12T02:41:22.145Z,3.15
2023-03-12T02:44:10.154Z,3.05
2023-03-12T02:46:49.702Z,3.00
2023-03-12T02:49:19.336Z,3.00
2023-03-12T02:51:47.686Z,3.13
2023-03-12T02:54:17.607Z,3.15
2023-03-12T02:56:45.538Z,2.65
2023-03-12T02:59:13.948Z,2.97
2023-03-12T03:01:41.394Z,3.13
2023-03-12T03:04:10.521Z,3.03
2023-03-12T03:06:41.832Z,3.00
2023-03-12T03:09:09.703Z,2.80
2023-03-12T03:11:36.986Z,3.10
2023-03-12T03:14:07.116Z,2.92
2023-03-12T03:16:34.675Z,3.05
2023-03-12T03:19:01.834Z,3.15
2023-03-12T03:21:29.554Z,3.00
2023-03-12T03:23:56.781Z,3.22
2023-03-12T03:26:24.844Z,2.63
2023-03-12T03:28:52.334Z,3.35
2023-03-12T03:31:19.574Z,3.05
2023-03-12T03:33:52.011Z,3.25
2023-03-12T03:36:19.643Z,3.13
2023-03-12T03:38:49.787Z,3.15
2023-03-12T03:41:19.167Z,2.88
2023-03-12T03:43:47.706Z,2.97
2023-03-12T03:46:16.903Z,2.85
2023-03-12T03:48:43.946Z,2.83
2023-03-12T03:51:12.246Z,3.33
2023-03-12T03:53:39.620Z,3.38
2023-03-12T03:56:09.032Z,2.40
2023-03-12T03:58:36.913Z,3.05
2023-03-12T04:01:04.471Z,3.30
2023-03-12T04:03:31.703Z,2.50
2023-03-12T04:06:06.058Z,2.90
2023-03-12T04:08:36.091Z,2.88
2023-03-12T04:11:17.909Z,2.95
2023-03-12T04:13:45.968Z,2.30
2023-03-12T04:16:14.641Z,2.10
2023-03-12T04:18:41.731Z,2.17
2023-03-12T04:21:11.226Z,2.22
2023-03-12T04:23:38.708Z,2.08
2023-03-12T04:26:06.858Z,2.75
2023-03-12T04:28:35.171Z,2.17
2023-03-12T04:31:05.810Z,1.83
2023-03-12T04:33:38.174Z,2.13
2023-03-12T04:36:06.386Z,2.80
2023-03-12T04:38:35.618Z,2.50
2023-03-12T04:41:12.667Z,1.98
2023-03-12T04:43:40.077Z,2.40
2023-03-12T04:46:08.228Z,2.13
2023-03-12T04:48:36.121Z,2.13
2023-03-12T04:51:04.594Z,3.38
2023-03-12T04:55:59.636Z,2.33
2023-03-12T04:58:28.468Z,2.45
2023-03-12T05:00:57.020Z,1.95
2023-03-12T05:03:24.327Z,2.20
2023-03-12T05:05:53.408Z,2.53
2023-03-12T05:08:20.720Z,2.25
2023-03-12T05:10:47.572Z,2.50
2023-03-12T05:13:21.075Z,2.40
2023-03-12T05:15:51.254Z,2.22
2023-03-12T05:18:21.027Z,2.72
2023-03-12T05:20:57.469Z,2.42
2023-03-12T05:23:24.778Z,2.33
2023-03-12T05:25:51.904Z,3.08
2023-03-12T05:28:20.691Z,2.60
2023-03-12T05:30:48.176Z,2.40
2023-03-12T05:33:15.103Z,3.20
2023-03-12T05:35:42.088Z,2.92
2023-03-12T05:38:09.531Z,2.47
2023-03-12T05:40:36.669Z,3.05
2023-03-12T05:43:04.073Z,3.22
2023-03-12T05:45:33.091Z,3.17
2023-03-12T05:48:03.028Z,2.55
2023-03-12T05:50:31.046Z,2.80
2023-03-12T05:52:57.962Z,2.08
2023-03-12T05:55:25.849Z,2.50
2023-03-12T05:57:52.808Z,2.20
2023-03-12T06:00:22.460Z,2.30
2023-03-12T06:02:49.462Z,2.85
2023-03-12T06:05:17.297Z,2.38
2023-03-12T06:07:44.298Z,2.58
2023-03-12T06:10:12.098Z,2.67
2023-03-12T06:12:39.209Z,3.38
2023-03-12T06:15:08.212Z,3.38
2023-03-12T06:17:35.397Z,2.90
2023-03-12T06:20:02.504Z,3.05
2023-03-12T06:22:30.270Z,3.67
2023-03-12T06:24:57.529Z,2.40
2023-03-12T06:27:24.596Z,3.45
2023-03-12T06:29:52.178Z,3.38
2023-03-12T06:32:19.462Z,3.35
2023-03-12T06:34:46.825Z,4.05
2023-03-12T06:37:13.905Z,3.10
2023-03-12T06:39:41.464Z,3.35
2023-03-12T06:42:08.413Z,4.07
2023-03-12T06:44:35.423Z,4.00
2023-03-12T06:47:02.709Z,3.60
2023-03-12T06:49:33.599Z,4.13
2023-03-12T06:52:07.660Z,4.22
2023-03-12T06:57:18.109Z,3.78
2023-03-12T06:59:44.933Z,4.50
2023-03-12T07:02:12.392Z,4.00
2023-03-12T07:04:39.304Z,4.82
2023-03-12T07:07:06.085Z,4.45
2023-03-12T07:09:33.546Z,3.85
2023-03-12T07:12:00.500Z,3.92
2023-03-12T07:14:27.372Z,4.47
2023-03-12T07:16:54.484Z,4.55
2023-03-12T07:19:21.475Z,4.82
2023-03-12T07:21:48.513Z,3.85
2023-03-12T07:24:15.415Z,5.53
2023-03-12T07:26:44.764Z,4.88
2023-03-12T07:29:11.770Z,4.40
2023-03-12T07:31:39.259Z,4.45
2023-03-12T07:34:06.844Z,5.10
2023-03-12T07:36:33.973Z,5.10
2023-03-12T07:39:02.421Z,5.75
2023-03-12T07:41:29.449Z,5.72
2023-03-12T07:43:57.282Z,5.28
2023-03-12T07:46:24.582Z,5.30
2023-03-12T07:48:51.739Z,5.57
2023-03-12T07:51:18.890Z,5.63
2023-03-12T07:53:46.172Z,5.93
2023-03-12T07:56:13.355Z,5.82
2023-03-12T07:58:40.587Z,5.75
2023-03-12T08:01:08.960Z,6.25
2023-03-12T08:03:36.327Z,5.47
2023-03-12T08:06:06.242Z,6.13
2023-03-12T08:08:33.439Z,6.38
2023-03-12T08:11:00.902Z,6.38
2023-03-12T08:13:28.423Z,6.80
2023-03-12T08:15:55.817Z,6.15
2023-03-12T08:18:25.225Z,4.38
2023-03-12T08:20:54.411Z,5.80
2023-03-12T08:23:22.432Z,7.15
2023-03-12T08:25:51.443Z,7.05
2023-03-12T08:28:19.190Z,7.22
2023-03-12T08:30:51.553Z,6.60
2023-03-12T08:33:18.846Z,7.22
2023-03-12T08:35:46.248Z,5.00
2023-03-12T08:38:13.769Z,6.85
2023-03-12T08:40:40.738Z,8.25
2023-03-12T08:43:08.086Z,7.70
2023-03-12T08:45:36.498Z,8.35
2023-03-12T08:50:32.658Z,6.03
2023-03-12T08:53:00.352Z,8.32
2023-03-12T08:55:30.787Z,8.35
2023-03-12T08:58:00.895Z,10.07
2023-03-12T09:00:27.902Z,8.00
2023-03-12T09:02:58.866Z,9.63
2023-03-12T09:05:26.459Z,10.68
2023-03-12T09:07:53.284Z,9.90
2023-03-12T09:10:20.495Z,11.00
2023-03-12T09:12:47.606Z,9.75
2023-03-12T09:15:15.818Z,9.73
2023-03-12T09:17:42.894Z,11.80
2023-03-12T09:20:16.770Z,9.15
2023-03-12T09:22:44.930Z,11.95
2023-03-12T09:25:12.409Z,11.57
2023-03-12T09:27:45.136Z,11.02
2023-03-12T09:30:16.099Z,11.95
2023-03-12T09:32:45.559Z,12.88
2023-03-12T09:35:14.967Z,11.48
2023-03-12T09:37:43.131Z,10.32
2023-03-12T09:40:18.280Z,14.15
2023-03-12T09:42:58.483Z,13.15
2023-03-12T09:45:28.672Z,13.65
2023-03-12T09:47:58.951Z,13.45
2023-03-12T09:50:43.746Z,12.05
2023-03-12T09:53:38.660Z,13.57
2023-03-12T09:56:10.256Z,12.73
2023-03-12T09:58:38.588Z,13.55
2023-03-12T10:01:31.896Z,13.55
2023-03-12T10:04:26.813Z,12.82
2023-03-12T10:07:18.603Z,14.27
2023-03-12T10:10:02.193Z,13.70
2023-03-12T10:12:56.200Z,13.57
2023-03-12T10:15:45.999Z,14.68
2023-03-12T10:18:22.567Z,14.07
2023-03-12T10:20:55.790Z,14.23
2023-03-12T10:23:39.936Z,15.60
2023-03-12T10:26:15.718Z,12.73
2023-03-12T10:28:52.876Z,11.25
2023-03-12T10:31:32.812Z,12.25
2023-03-12T10:34:02.022Z,13.73
2023-03-12T10:36:41.350Z,11.98
2023-03-12T10:39:17.906Z,11.90
2023-03-12T10:41:48.200Z,11.80
2023-03-12T10:44:25.901Z,11.07
2023-03-12T10:46:57.024Z,11.52
2023-03-12T10:49:24.101Z,10.75
2023-03-12T10:51:55.873Z,10.30
2023-03-12T10:54:31.826Z,11.35
2023-03-12T10:56:59.262Z,10.48
2023-03-12T10:59:29.903Z,9.68
2023-03-12T11:01:58.713Z,9.80
2023-03-12T11:04:32.709Z,9.25
2023-03-12T11:07:33.658Z,8.25
2023-03-12T11:10:18.192Z,7.45
2023-03-12T11:13:01.105Z,7.22
2023-03-12T11:15:51.333Z,5.05
2023-03-12T11:18:35.052Z,6.32
2023-03-12T11:21:10.977Z,5.22
2023-03-12T11:23:48.477Z,5.97
2023-03-12T11:26:23.415Z,6.47
2023-03-12T11:29:12.306Z,5.97
2023-03-12T11:31:46.589Z,3.97
2023-03-12T11:34:31.457Z,4.22
2023-03-12T11:37:12.918Z,5.57
2023-03-12T11:40:15.092Z,4.38
2023-03-12T11:42:52.060Z,4.57
2023-03-12T11:45:51.789Z,5.63
2023-03-12T11:48:41.095Z,4.18
2023-03-12T11:51:28.171Z,4.75
2023-03-12T11:54:01.061Z,3.47
2023-03-12T11:56:39.332Z,3.92
2023-03-12T11:59:39.658Z,5.50
2023-03-12T12:02:45.322Z,5.35
2023-03-12T12:05:39.785Z,4.43
2023-03-12T12:08:32.904Z,4.47
2023-03-12T12:11:17.983Z,4.70
2023-03-12T12:14:04.393Z,4.30
2023-03-12T12:17:13.035Z,4.65
2023-03-12T12:20:11.398Z,4.15
2023-03-12T12:23:17.787Z,6.40
2023-03-12T12:26:05.778Z,4.00
2023-03-12T12:29:20.781Z,5.78
2023-03-12T12:31:57.605Z,4.20
2023-03-12T12:34:32.373Z,3.83
2023-03-12T12:37:12.465Z,4.97
2023-03-12T12:39:53.309Z,5.40
2023-03-12T12:42:26.705Z,3.47
2023-03-12T12:44:57.762Z,4.47
2023-03-12T12:47:43.636Z,5.22
2023-03-12T12:50:21.974Z,3.83
2023-03-12T12:52:57.089Z,4.78
2023-03-12T12:55:35.093Z,4.55
2023-03-12T12:58:17.153Z,3.55
2023-03-12T13:00:53.450Z,3.67
2023-03-12T13:03:26.301Z,4.13
2023-03-12T13:05:53.294Z,3.90
2023-03-12T13:08:44.638Z,4.88
2023-03-12T13:11:19.499Z,4.05
2023-03-12T13:14:02.663Z,3.88
2023-03-12T13:16:36.315Z,4.07
2023-03-12T13:19:15.667Z,5.25
2023-03-12T13:21:51.634Z,3.85
2023-03-12T13:24:37.517Z,3.38
2023-03-12T13:27:29.394Z,5.15
2023-03-12T13:29:57.753Z,4.65
2023-03-12T13:32:37.222Z,4.70
2023-03-12T13:35:24.554Z,4.65
2023-03-12T13:37:53.989Z,3.88
2023-03-12T13:40:30.221Z,5.35
2023-03-12T13:43:10.084Z,3.95
2023-03-12T13:46:23.588Z,3.50
2023-03-12T13:48:51.408Z,4.68
2023-03-12T13:51:25.096Z,3.78
2023-03-12T13:54:18.735Z,3.72
2023-03-12T13:57:05.910Z,4.25
2023-03-12T13:59:34.056Z,4.53
2023-03-12T14:02:07.481Z,3.88
2023-03-12T14:04:42.100Z,4.07
2023-03-12T14:07:30.723Z,5.63
2023-03-12T14:10:11.563Z,4.63
2023-03-12T14:12:49.790Z,3.75
2023-03-12T14:15:29.797Z,3.10
2023-03-12T14:18:03.684Z,5.50
2023-03-12T14:20:32.001Z,4.65
2023-03-12T14:23:04.904Z,3.63
2023-03-12T14:25:48.347Z,3.65
2023-03-12T14:28:22.632Z,3.88
2023-03-12T14:33:27.846Z,5.32
2023-03-12T14:36:04.163Z,3.50
2023-03-12T14:38:38.030Z,2.97
2023-03-12T14:41:29.812Z,4.43
2023-03-12T14:44:06.820Z,3.75
2023-03-12T14:46:34.575Z,3.05
2023-03-12T14:49:03.103Z,3.67
2023-03-12T14:51:36.357Z,4.07
2023-03-12T14:54:03.740Z,5.43
2023-03-12T14:56:36.255Z,3.33
2023-03-12T14:59:31.543Z,4.30
2023-03-12T15:02:13.847Z,3.13
2023-03-12T15:04:42.233Z,3.90
2023-03-12T15:09:44.910Z,3.22
2023-03-12T15:12:28.219Z,4.10
2023-03-12T15:15:04.486Z,4.00
2023-03-12T15:17:34.940Z,3.40
2023-03-12T15:20:10.228Z,3.22
2023-03-12T15:22:38.219Z,4.88
2023-03-12T15:25:27.848Z,3.40
2023-03-12T15:28:15.053Z,4.25
2023-03-12T15:30:43.631Z,3.17
2023-03-12T15:33:14.862Z,2.95
2023-03-12T15:35:57.760Z,4.10
2023-03-12T15:38:27.536Z,3.13
2023-03-12T15:41:00.583Z,3.75
2023-03-12T15:43:28.559Z,3.70
2023-03-12T15:46:06.540Z,3.83
2023-03-12T15:48:50.934Z,3.05
2023-03-12T15:51:37.433Z,2.97
2023-03-12T15:54:14.743Z,3.63
2023-03-12T15:56:42.762Z,4.05
2023-03-12T15:59:15.943Z,3.03
2023-03-12T16:01:51.784Z,5.10
2023-03-12T16:04:21.552Z,2.50
2023-03-12T16:06:53.899Z,4.15
2023-03-12T16:09:29.732Z,3.75
2023-03-12T16:11:57.966Z,3.70
2023-03-12T16:14:31.329Z,3.75
2023-03-12T16:16:58.771Z,3.58
2023-03-12T16:19:29.414Z,2.80
2023-03-12T16:22:00.161Z,3.67
2023-03-12T16:24:28.447Z,3.03
2023-03-12T16:26:59.254Z,3.70
2023-03-12T16:29:36.028Z,4.50
2023-03-12T16:32:14.254Z,3.13
2023-03-12T16:34:43.523Z,3.75
2023-03-12T16:37:13.066Z,4.47
2023-03-12T16:39:40.447Z,4.20
2023-03-12T16:42:15.938Z,2.67
2023-03-12T16:44:46.355Z,4.85
2023-03-12T16:47:14.668Z,4.25
2023-03-12T16:49:44.120Z,2.65
2023-03-12T16:52:23.075Z,2.72
2023-03-12T16:54:52.361Z,3.95
2023-03-12T16:57:35.170Z,3.47
2023-03-12T17:00:15.907Z,4.43
2023-03-12T17:02:42.924Z,4.20
2023-03-12T17:05:11.219Z,3.20
2023-03-12T17:10:08.898Z,4.15
2023-03-12T17:12:39.393Z,2.40
2023-03-12T17:15:26.213Z,4.18
2023-03-12T17:17:55.625Z,6.30
2023-03-12T17:20:24.876Z,3.38
2023-03-12T17:22:53.634Z,3.47
2023-03-12T17:25:26.210Z,4.15
2023-03-12T17:27:56.690Z,4.40
2023-03-12T17:30:25.254Z,4.05
2023-03-12T17:32:54.640Z,4.38
2023-03-12T17:35:21.977Z,3.00
2023-03-12T17:37:49.420Z,4.50
2023-03-12T17:40:17.594Z,4.72
2023-03-12T17:42:45.728Z,3.92
2023-03-12T17:45:13.180Z,4.90
2023-03-12T17:47:41.390Z,4.75
2023-03-12T17:50:10.095Z,5.72
2023-03-12T17:52:37.237Z,5.68
2023-03-12T17:55:05.248Z,4.57
2023-03-12T17:57:32.740Z,4.45
2023-03-12T18:00:00.474Z,4.40
2023-03-12T18:02:27.639Z,3.60
2023-03-12T18:04:55.755Z,4.50
2023-03-12T18:07:23.329Z,4.47
2023-03-12T18:09:53.115Z,4.57
2023-03-12T18:12:20.376Z,4.03
2023-03-12T18:14:48.904Z,3.20
2023-03-12T18:17:16.396Z,4.75
2023-03-12T18:19:43.625Z,2.25
2023-03-12T18:22:14.678Z,2.72
2023-03-12T18:24:42.691Z,2.20
2023-03-12T18:27:09.813Z,2.83
2023-03-12T18:29:37.997Z,2.65
2023-03-12T18:32:05.272Z,2.20
2023-03-12T18:34:32.387Z,2.65
2023-03-12T18:36:59.636Z,2.45
2023-03-12T18:39:27.567Z,1.42
2023-03-12T18:41:57.689Z,2.28
2023-03-12T18:44:24.862Z,2.25
2023-03-12T18:46:52.284Z,2.00
2023-03-12T18:49:21.073Z,1.67
2023-03-12T18:51:53.621Z,2.03
2023-03-12T18:54:24.395Z,1.80
2023-03-12T18:56:51.914Z,2.15
2023-03-12T18:59:19.226Z,1.98
2023-03-12T19:01:46.685Z,1.75
2023-03-12T19:04:19.313Z,2.30
2023-03-12T19:06:51.060Z,4.25
2023-03-12T19:09:19.214Z,2.08
2023-03-12T19:11:49.832Z,3.63
2023-03-12T19:14:17.737Z,2.78
2023-03-12T19:16:44.831Z,2.53
2023-03-12T19:19:14.138Z,2.08
2023-03-12T19:24:10.646Z,2.72
2023-03-12T19:26:38.238Z,2.55
2023-03-12T19:29:06.024Z,4.00
2023-03-12T19:31:33.548Z,2.83
2023-03-12T19:34:01.377Z,2.40
2023-03-12T19:36:28.381Z,2.72
2023-03-12T19:38:55.349Z,4.03
2023-03-12T19:41:22.754Z,2.67
2023-03-12T19:43:49.923Z,2.70
2023-03-12T19:46:22.341Z,3.70
2023-03-12T19:48:50.409Z,2.65
2023-03-12T19:51:17.423Z,3.10
2023-03-12T19:53:44.882Z,3.22
2023-03-12T19:56:16.509Z,2.90
2023-03-12T19:58:49.873Z,2.67
2023-03-12T20:01:18.431Z,2.15
2023-03-12T20:03:47.131Z,1.92
2023-03-12T20:06:14.268Z,2.60
2023-03-12T20:08:42.533Z,2.30
2023-03-12T20:11:11.638Z,2.75
2023-03-12T20:13:39.533Z,2.63
2023-03-12T20:16:07.894Z,2.75
2023-03-12T20:18:35.447Z,4.28
2023-03-12T20:21:02.636Z,2.47
2023-03-12T20:23:31.406Z,2.58
2023-03-12T20:25:59.840Z,1.73
2023-03-12T20:28:27.805Z,2.05
2023-03-12T20:30:58.044Z,2.28
2023-03-12T20:33:26.397Z,3.10
2023-03-12T20:35:53.865Z,1.77
2023-03-12T20:38:21.067Z,1.48
2023-03-12T20:40:48.248Z,2.28
2023-03-12T20:43:15.637Z,2.33
2023-03-12T20:45:47.043Z,2.95
2023-03-12T20:48:15.880Z,2.08
2023-03-12T20:50:42.968Z,2.40
2023-03-12T20:53:10.228Z,2.60
2023-03-12T20:55:41.273Z,2.88
2023-03-12T20:58:08.154Z,2.42
2023-03-12T21:00:35.211Z,2.65
2023-03-12T21:03:05.458Z,2.65
2023-03-12T21:05:33.312Z,2.72
2023-03-12T21:08:01.205Z,2.95
2023-03-12T21:10:28.435Z,3.83
2023-03-12T21:12:57.531Z,3.58
2023-03-12T21:15:24.113Z,3.00
2023-03-12T21:17:51.077Z,3.72
2023-03-12T21:20:18.803Z,2.78
2023-03-12T21:22:46.997Z,3.38
2023-03-12T21:25:13.730Z,3.38
2023-03-12T21:27:50.379Z,3.90
2023-03-12T21:30:18.741Z,2.80
2023-03-12T21:32:45.581Z,3.72
2023-03-12T21:35:12.537Z,2.92
2023-03-12T21:37:39.625Z,4.60
2023-03-12T21:40:07.865Z,4.28
2023-03-12T21:42:34.436Z,3.30
2023-03-12T21:45:01.238Z,2.97
2023-03-12T21:47:28.040Z,2.88
2023-03-12T21:49:54.879Z,2.50
2023-03-12T21:52:21.633Z,3.15
2023-03-12T21:54:48.268Z,3.35
2023-03-12T21:57:14.968Z,3.10
2023-03-12T21:59:41.532Z,2.55
2023-03-12T22:02:11.832Z,3.13
2023-03-12T22:04:38.440Z,3.00
2023-03-12T22:07:05.986Z,3.65
2023-03-12T22:09:32.633Z,3.42
2023-03-12T22:11:59.496Z,4.35
2023-03-12T22:14:26.438Z,4.47
2023-03-12T22:16:53.226Z,3.05
2023-03-12T22:19:23.272Z,3.03
2023-03-12T22:21:50.259Z,3.30
2023-03-12T22:24:17.513Z,3.67
2023-03-12T22:26:44.378Z,3.83
2023-03-12T22:29:11.208Z,3.80
2023-03-12T22:31:38.038Z,3.80
2023-03-12T22:34:04.891Z,4.10
2023-03-12T22:36:31.569Z,4.20
2023-03-12T22:38:59.616Z,3.40
2023-03-12T22:41:29.993Z,3.80
2023-03-12T22:44:06.287Z,4.63
2023-03-12T22:46:33.887Z,4.28
2023-03-12T22:49:02.564Z,3.47
2023-03-12T22:51:31.626Z,4.63
2023-03-12T22:53:58.525Z,4.22
2023-03-12T22:56:27.234Z,4.30
2023-03-12T22:58:55.739Z,4.07
2023-03-12T23:01:23.313Z,4.65
2023-03-12T23:03:50.911Z,5.38
2023-03-12T23:06:23.815Z,4.93
2023-03-12T23:08:51.543Z,4.53
2023-03-12T23:11:19.729Z,3.75
2023-03-12T23:13:46.755Z,4.47
2023-03-12T23:16:19.733Z,5.90
2023-03-12T23:18:46.910Z,5.57
2023-03-12T23:21:17.529Z,5.05
2023-03-12T23:23:44.968Z,5.28
2023-03-12T23:26:24.616Z,5.35
2023-03-12T23:28:53.546Z,5.50
2023-03-12T23:31:21.134Z,5.50
2023-03-12T23:33:47.911Z,4.47
2023-03-12T23:36:20.799Z,5.18
2023-03-12T23:38:48.876Z,3.80
2023-03-12T23:41:17.093Z,4.05
2023-03-12T23:43:44.227Z,4.70
2023-03-12T23:46:12.267Z,5.28
2023-03-12T23:48:39.961Z,5.32
2023-03-12T23:51:11.066Z,4.80
2023-03-12T23:53:39.886Z,4.30
2023-03-12T23:56:10.515Z,4.03
2023-03-12T23:58:37.149Z,4.25
